sensor_id;sensor_type;location;lat;lon;timestamp;P1;durP1;ratioP1;P2;durP2;ratioP2
32082;SDS011;18597;48.328;7.932;2024-03-23T00:56:03;2.90;;;2.80;;
32082;SDS011;18597;48.328;7.932;2024-03-23T00:58:29;1.93;;;1.83;;
32082;SDS011;18597;48.328;7.932;2024-03-23T01:00:55;3.40;;;2.23;;
32082;SDS011;18597;48.328;7.932;2024-03-23T01:03:21;3.13;;;2.30;;
32082;SDS011;18597;48.328;7.932;2024-03-23T01:05:47;2.37;;;2.27;;
32082;SDS011;18597;48.328;7.932;2024-03-23T01:08:14;3.70;;;2.40;;
32082;SDS011;18597;48.328;7.932;2024-03-23T01:10:40;2.23;;;2.13;;
32082;SDS011;18597;48.328;7.932;2024-03-23T01:13:05;5.37;;;2.57;;
32082;SDS011;18597;48.328;7.932;2024-03-23T01:15:31;2.70;;;2.50;;
32082;SDS011;18597;48.328;7.932;2024-03-23T01:17:57;2.43;;;2.27;;
32082;SDS011;18597;48.328;7.932;2024-03-23T01:20:23;2.40;;;2.03;;
32082;SDS011;18597;48.328;7.932;2024-03-23T01:22:49;3.73;;;2.53;;
32082;SDS011;18597;48.328;7.932;2024-03-23T01:25:14;3.80;;;1.73;;
32082;SDS011;18597;48.328;7.932;2024-03-23T01:27:40;2.57;;;2.33;;
32082;SDS011;18597;48.328;7.932;2024-03-23T01:30:06;2.33;;;2.13;;
32082;SDS011;18597;48.328;7.932;2024-03-23T01:32:32;1.97;;;1.87;;
32082;SDS011;18597;48.328;7.932;2024-03-23T01:34:58;1.80;;;1.80;;
32082;SDS011;18597;48.328;7.932;2024-03-23T01:37:24;2.10;;;2.10;;
32082;SDS011;18597;48.328;7.932;2024-03-23T01:39:50;3.17;;;1.50;;
32082;SDS011;18597;48.328;7.932;2024-03-23T01:42:16;2.40;;;2.20;;
32082;SDS011;18597;48.328;7.932;2024-03-23T01:44:41;2.03;;;2.03;;
32082;SDS011;18597;48.328;7.932;2024-03-23T01:47:07;2.90;;;2.60;;
32082;SDS011;18597;48.328;7.932;2024-03-23T01:49:34;7.83;;;2.00;;
32082;SDS011;18597;48.328;7.932;2024-03-23T01:52:00;2.17;;;2.00;;
32082;SDS011;18597;48.328;7.932;2024-03-23T01:54:27;3.03;;;2.00;;
32082;SDS011;18597;48.328;7.932;2024-03-23T01:56:54;1.63;;;1.63;;
32082;SDS011;18597;48.328;7.932;2024-03-23T01:59:20;4.63;;;1.97;;
32082;SDS011;18597;48.328;7.932;2024-03-23T02:01:46;1.80;;;1.80;;
32082;SDS011;18597;48.328;7.932;2024-03-23T02:04:12;2.00;;;1.90;;
32082;SDS011;18597;48.328;7.932;2024-03-23T02:06:38;3.53;;;2.43;;
32082;SDS011;18597;48.328;7.932;2024-03-23T02:09:04;3.30;;;2.70;;
32082;SDS011;18597;48.328;7.932;2024-03-23T02:11:30;2.63;;;1.63;;
32082;SDS011;18597;48.328;7.932;2024-03-23T02:13:56;2.30;;;2.23;;
32082;SDS011;18597;48.328;7.932;2024-03-23T02:16:23;2.43;;;2.27;;
32082;SDS011;18597;48.328;7.932;2024-03-23T02:18:49;2.30;;;2.13;;
32082;SDS011;18597;48.328;7.932;2024-03-23T02:21:15;2.17;;;2.07;;
32082;SDS011;18597;48.328;7.932;2024-03-23T02:23:41;3.37;;;3.17;;
32082;SDS011;18597;48.328;7.932;2024-03-23T02:26:06;4.17;;;2.73;;
32082;SDS011;18597;48.328;7.932;2024-03-23T02:28:32;3.20;;;2.60;;
32082;SDS011;18597;48.328;7.932;2024-03-23T02:30:58;3.23;;;2.83;;
32082;SDS011;18597;48.328;7.932;2024-03-23T02:33:26;2.43;;;2.33;;
32082;SDS011;18597;48.328;7.932;2024-03-23T02:35:55;6.73;;;2.37;;
32082;SDS011;18597;48.328;7.932;2024-03-23T02:38:22;4.73;;;2.60;;
32082;SDS011;18597;48.328;7.932;2024-03-23T02:40:48;2.60;;;2.40;;
32082;SDS011;18597;48.328;7.932;2024-03-23T02:43:14;3.00;;;2.73;;
32082;SDS011;18597;48.328;7.932;2024-03-23T02:45:40;2.50;;;2.37;;
32082;SDS011;18597;48.328;7.932;2024-03-23T02:48:05;2.60;;;2.30;;
32082;SDS011;18597;48.328;7.932;2024-03-23T02:50:32;2.37;;;2.30;;
32082;SDS011;18597;48.328;7.932;2024-03-23T02:52:57;3.13;;;2.20;;
32082;SDS011;18597;48.328;7.932;2024-03-23T02:55:23;4.83;;;2.30;;
32082;SDS011;18597;48.328;7.932;2024-03-23T02:57:49;6.90;;;2.57;;
32082;SDS011;18597;48.328;7.932;2024-03-23T03:00:15;6.47;;;2.67;;
32082;SDS011;18597;48.328;7.932;2024-03-23T03:02:41;10.00;;;2.73;;
32082;SDS011;18597;48.328;7.932;2024-03-23T03:05:06;4.30;;;2.47;;
32082;SDS011;18597;48.328;7.932;2024-03-23T03:07:34;2.43;;;2.33;;
32082;SDS011;18597;48.328;7.932;2024-03-23T03:09:59;2.70;;;2.60;;
32082;SDS011;18597;48.328;7.932;2024-03-23T03:12:25;2.00;;;1.90;;
32082;SDS011;18597;48.328;7.932;2024-03-23T03:14:52;2.10;;;1.80;;
32082;SDS011;18597;48.328;7.932;2024-03-23T03:17:17;2.13;;;2.03;;
32082;SDS011;18597;48.328;7.932;2024-03-23T03:19:44;2.60;;;2.40;;
32082;SDS011;18597;48.328;7.932;2024-03-23T03:22:10;6.50;;;2.70;;
32082;SDS011;18597;48.328;7.932;2024-03-23T03:24:36;2.57;;;2.47;;
32082;SDS011;18597;48.328;7.932;2024-03-23T03:27:02;2.40;;;2.20;;
32082;SDS011;18597;48.328;7.932;2024-03-23T03:29:28;4.27;;;2.70;;
32082;SDS011;18597;48.328;7.932;2024-03-23T03:32:00;5.20;;;2.77;;
32082;SDS011;18597;48.328;7.932;2024-03-23T03:34:27;2.87;;;2.30;;
32082;SDS011;18597;48.328;7.932;2024-03-23T03:36:54;2.20;;;2.10;;
32082;SDS011;18597;48.328;7.932;2024-03-23T03:39:20;1.60;;;1.60;;
32082;SDS011;18597;48.328;7.932;2024-03-23T03:41:45;2.57;;;2.37;;
32082;SDS011;18597;48.328;7.932;2024-03-23T03:44:11;2.20;;;2.20;;
32082;SDS011;18597;48.328;7.932;2024-03-23T03:46:37;3.03;;;2.50;;
32082;SDS011;18597;48.328;7.932;2024-03-23T03:49:03;2.83;;;2.63;;
32082;SDS011;18597;48.328;7.932;2024-03-23T03:51:28;8.80;;;2.37;;
32082;SDS011;18597;48.328;7.932;2024-03-23T03:53:54;4.70;;;2.40;;
32082;SDS011;18597;48.328;7.932;2024-03-23T03:56:20;2.97;;;2.77;;
32082;SDS011;18597;48.328;7.932;2024-03-23T03:58:47;3.30;;;3.00;;
32082;SDS011;18597;48.328;7.932;2024-03-23T04:01:13;4.90;;;2.60;;
32082;SDS011;18597;48.328;7.932;2024-03-23T04:03:39;3.43;;;3.30;;
32082;SDS011;18597;48.328;7.932;2024-03-23T04:06:08;4.00;;;3.80;;
32082;SDS011;18597;48.328;7.932;2024-03-23T04:08:35;3.73;;;2.90;;
32082;SDS011;18597;48.328;7.932;2024-03-23T04:11:01;3.67;;;3.30;;
32082;SDS011;18597;48.328;7.932;2024-03-23T04:13:27;6.93;;;4.03;;
32082;SDS011;18597;48.328;7.932;2024-03-23T04:15:54;6.00;;;4.27;;
32082;SDS011;18597;48.328;7.932;2024-03-23T04:18:21;4.60;;;4.30;;
32082;SDS011;18597;48.328;7.932;2024-03-23T04:20:48;8.00;;;4.90;;
32082;SDS011;18597;48.328;7.932;2024-03-23T04:23:14;7.57;;;5.17;;
32082;SDS011;18597;48.328;7.932;2024-03-23T04:25:40;5.30;;;4.87;;
32082;SDS011;18597;48.328;7.932;2024-03-23T04:28:05;5.87;;;5.37;;
32082;SDS011;18597;48.328;7.932;2024-03-23T04:30:31;6.63;;;6.03;;
32082;SDS011;18597;48.328;7.932;2024-03-23T04:32:57;5.93;;;5.43;;
32082;SDS011;18597;48.328;7.932;2024-03-23T04:35:24;9.97;;;7.00;;
32082;SDS011;18597;48.328;7.932;2024-03-23T04:37:50;8.50;;;6.80;;
32082;SDS011;18597;48.328;7.932;2024-03-23T04:40:17;10.73;;;7.50;;
32082;SDS011;18597;48.328;7.932;2024-03-23T04:42:43;9.47;;;8.60;;
32082;SDS011;18597;48.328;7.932;2024-03-23T04:45:09;12.87;;;9.40;;
32082;SDS011;18597;48.328;7.932;2024-03-23T04:47:36;13.50;;;10.17;;
32082;SDS011;18597;48.328;7.932;2024-03-23T04:50:03;20.00;;;12.40;;
32082;SDS011;18597;48.328;7.932;2024-03-23T04:52:30;15.20;;;11.77;;
32082;SDS011;18597;48.328;7.932;2024-03-23T04:54:55;17.03;;;13.00;;
32082;SDS011;18597;48.328;7.932;2024-03-23T04:57:21;19.87;;;14.90;;
32082;SDS011;18597;48.328;7.932;2024-03-23T04:59:47;21.50;;;13.23;;
32082;SDS011;18597;48.328;7.932;2024-03-23T05:02:13;24.75;;;17.83;;
32082;SDS011;18597;48.328;7.932;2024-03-23T05:04:40;19.50;;;15.63;;
32082;SDS011;18597;48.328;7.932;2024-03-23T05:07:06;24.47;;;15.17;;
32082;SDS011;18597;48.328;7.932;2024-03-23T05:09:32;22.90;;;14.93;;
32082;SDS011;18597;48.328;7.932;2024-03-23T05:11:59;21.43;;;14.60;;
32082;SDS011;18597;48.328;7.932;2024-03-23T05:14:25;24.23;;;16.30;;
32082;SDS011;18597;48.328;7.932;2024-03-23T05:16:51;27.60;;;17.70;;
32082;SDS011;18597;48.328;7.932;2024-03-23T05:19:18;25.50;;;17.00;;
32082;SDS011;18597;48.328;7.932;2024-03-23T05:21:44;30.70;;;19.07;;
32082;SDS011;18597;48.328;7.932;2024-03-23T05:24:10;24.50;;;17.77;;
32082;SDS011;18597;48.328;7.932;2024-03-23T05:26:37;25.13;;;16.33;;
32082;SDS011;18597;48.328;7.932;2024-03-23T05:29:03;28.13;;;18.60;;
32082;SDS011;18597;48.328;7.932;2024-03-23T05:31:30;29.00;;;18.90;;
32082;SDS011;18597;48.328;7.932;2024-03-23T05:33:56;31.07;;;18.60;;
32082;SDS011;18597;48.328;7.932;2024-03-23T05:36:22;31.27;;;19.10;;
32082;SDS011;18597;48.328;7.932;2024-03-23T05:38:49;35.20;;;19.33;;
32082;SDS011;18597;48.328;7.932;2024-03-23T05:41:15;32.37;;;18.50;;
32082;SDS011;18597;48.328;7.932;2024-03-23T05:43:41;32.10;;;20.50;;
32082;SDS011;18597;48.328;7.932;2024-03-23T05:46:07;30.70;;;18.37;;
32082;SDS011;18597;48.328;7.932;2024-03-23T05:48:34;8.47;;;7.60;;
32082;SDS011;18597;48.328;7.932;2024-03-23T05:51:00;9.90;;;7.47;;
32082;SDS011;18597;48.328;7.932;2024-03-23T05:53:26;7.47;;;5.50;;
32082;SDS011;18597;48.328;7.932;2024-03-23T05:56:02;4.97;;;4.60;;
32082;SDS011;18597;48.328;7.932;2024-03-23T05:58:29;4.27;;;4.03;;
32082;SDS011;18597;48.328;7.932;2024-03-23T06:01:02;7.03;;;4.67;;
32082;SDS011;18597;48.328;7.932;2024-03-23T06:03:28;3.20;;;3.00;;
32082;SDS011;18597;48.328;7.932;2024-03-23T06:05:55;3.27;;;3.13;;
32082;SDS011;18597;48.328;7.932;2024-03-23T06:08:21;1.80;;;1.70;;
32082;SDS011;18597;48.328;7.932;2024-03-23T06:10:49;1.67;;;1.57;;
32082;SDS011;18597;48.328;7.932;2024-03-23T06:13:15;1.73;;;1.63;;
32082;SDS011;18597;48.328;7.932;2024-03-23T06:15:42;1.27;;;1.27;;
32082;SDS011;18597;48.328;7.932;2024-03-23T06:18:09;1.00;;;1.00;;
32082;SDS011;18597;48.328;7.932;2024-03-23T06:20:34;1.13;;;1.13;;
32082;SDS011;18597;48.328;7.932;2024-03-23T06:23:01;1.00;;;1.00;;
32082;SDS011;18597;48.328;7.932;2024-03-23T06:25:28;1.47;;;1.00;;
32082;SDS011;18597;48.328;7.932;2024-03-23T06:27:54;0.97;;;0.97;;
32082;SDS011;18597;48.328;7.932;2024-03-23T06:30:20;0.70;;;0.70;;
32082;SDS011;18597;48.328;7.932;2024-03-23T06:32:46;1.37;;;1.37;;
32082;SDS011;18597;48.328;7.932;2024-03-23T06:35:12;7.60;;;1.60;;
32082;SDS011;18597;48.328;7.932;2024-03-23T06:37:38;1.27;;;1.00;;
32082;SDS011;18597;48.328;7.932;2024-03-23T06:40:06;1.07;;;1.07;;
32082;SDS011;18597;48.328;7.932;2024-03-23T06:42:34;0.90;;;0.90;;
32082;SDS011;18597;48.328;7.932;2024-03-23T06:45:01;1.90;;;1.17;;
32082;SDS011;18597;48.328;7.932;2024-03-23T06:47:29;1.27;;;0.90;;
32082;SDS011;18597;48.328;7.932;2024-03-23T06:49:55;1.90;;;0.60;;
32082;SDS011;18597;48.328;7.932;2024-03-23T06:52:21;0.60;;;0.60;;
32082;SDS011;18597;48.328;7.932;2024-03-23T06:54:47;1.40;;;1.30;;
32082;SDS011;18597;48.328;7.932;2024-03-23T06:57:13;0.87;;;0.87;;
32082;SDS011;18597;48.328;7.932;2024-03-23T06:59:39;0.70;;;0.70;;
32082;SDS011;18597;48.328;7.932;2024-03-23T07:02:05;0.33;;;0.33;;
32082;SDS011;18597;48.328;7.932;2024-03-23T07:04:33;0.70;;;0.70;;
32082;SDS011;18597;48.328;7.932;2024-03-23T07:07:00;5.43;;;0.60;;
32082;SDS011;18597;48.328;7.932;2024-03-23T07:09:28;0.40;;;0.40;;
32082;SDS011;18597;48.328;7.932;2024-03-23T07:11:54;2.10;;;0.20;;
32082;SDS011;18597;48.328;7.932;2024-03-23T07:14:22;0.50;;;0.50;;
32082;SDS011;18597;48.328;7.932;2024-03-23T07:16:48;3.07;;;2.20;;
32082;SDS011;18597;48.328;7.932;2024-03-23T07:19:15;0.40;;;0.40;;
32082;SDS011;18597;48.328;7.932;2024-03-23T07:21:43;8.10;;;3.83;;
32082;SDS011;18597;48.328;7.932;2024-03-23T07:24:10;3.10;;;2.90;;
32082;SDS011;18597;48.328;7.932;2024-03-23T07:26:36;1.00;;;1.00;;
32082;SDS011;18597;48.328;7.932;2024-03-23T07:29:03;2.20;;;0.83;;
32082;SDS011;18597;48.328;7.932;2024-03-23T07:31:30;1.50;;;1.40;;
32082;SDS011;18597;48.328;7.932;2024-03-23T07:33:56;2.03;;;2.00;;
32082;SDS011;18597;48.328;7.932;2024-03-23T07:36:21;2.47;;;2.27;;
32082;SDS011;18597;48.328;7.932;2024-03-23T07:38:47;2.90;;;0.90;;
32082;SDS011;18597;48.328;7.932;2024-03-23T07:41:15;1.60;;;1.43;;
32082;SDS011;18597;48.328;7.932;2024-03-23T07:43:42;2.50;;;1.20;;
32082;SDS011;18597;48.328;7.932;2024-03-23T07:46:09;1.17;;;0.97;;
32082;SDS011;18597;48.328;7.932;2024-03-23T07:48:37;2.90;;;2.70;;
32082;SDS011;18597;48.328;7.932;2024-03-23T07:51:07;1.37;;;1.30;;
32082;SDS011;18597;48.328;7.932;2024-03-23T07:53:35;1.03;;;1.03;;
32082;SDS011;18597;48.328;7.932;2024-03-23T07:56:05;0.90;;;0.90;;
32082;SDS011;18597;48.328;7.932;2024-03-23T07:58:33;1.00;;;1.00;;
32082;SDS011;18597;48.328;7.932;2024-03-23T08:01:03;0.70;;;0.70;;
32082;SDS011;18597;48.328;7.932;2024-03-23T08:03:33;1.00;;;1.00;;
32082;SDS011;18597;48.328;7.932;2024-03-23T08:06:15;1.77;;;1.67;;
32082;SDS011;18597;48.328;7.932;2024-03-23T08:08:45;2.70;;;1.60;;
32082;SDS011;18597;48.328;7.932;2024-03-23T08:11:14;2.53;;;1.03;;
32082;SDS011;18597;48.328;7.932;2024-03-23T08:13:40;1.37;;;1.37;;
32082;SDS011;18597;48.328;7.932;2024-03-23T08:16:07;2.90;;;1.27;;
32082;SDS011;18597;48.328;7.932;2024-03-23T08:18:34;3.30;;;3.10;;
32082;SDS011;18597;48.328;7.932;2024-03-23T08:21:02;4.73;;;3.90;;
32082;SDS011;18597;48.328;7.932;2024-03-23T08:23:31;2.93;;;2.60;;
32082;SDS011;18597;48.328;7.932;2024-03-23T08:25:59;2.43;;;2.23;;
32082;SDS011;18597;48.328;7.932;2024-03-23T08:28:26;8.80;;;5.10;;
32082;SDS011;18597;48.328;7.932;2024-03-23T08:30:53;6.30;;;3.57;;
32082;SDS011;18597;48.328;7.932;2024-03-23T08:33:20;6.00;;;3.53;;
32082;SDS011;18597;48.328;7.932;2024-03-23T08:35:55;4.40;;;3.77;;
32082;SDS011;18597;48.328;7.932;2024-03-23T08:38:22;5.47;;;2.80;;
32082;SDS011;18597;48.328;7.932;2024-03-23T08:40:56;5.87;;;3.13;;
32082;SDS011;18597;48.328;7.932;2024-03-23T08:43:25;9.60;;;3.70;;
32082;SDS011;18597;48.328;7.932;2024-03-23T08:45:52;11.07;;;4.20;;
32082;SDS011;18597;48.328;7.932;2024-03-23T08:48:19;8.93;;;4.77;;
32082;SDS011;18597;48.328;7.932;2024-03-23T08:50:46;8.60;;;4.87;;
32082;SDS011;18597;48.328;7.932;2024-03-23T08:53:12;6.53;;;3.60;;
32082;SDS011;18597;48.328;7.932;2024-03-23T08:55:38;13.70;;;3.33;;
32082;SDS011;18597;48.328;7.932;2024-03-23T08:58:04;5.80;;;3.57;;
32082;SDS011;18597;48.328;7.932;2024-03-23T09:00:33;8.23;;;2.90;;
32082;SDS011;18597;48.328;7.932;2024-03-23T09:02:59;8.43;;;4.30;;
32082;SDS011;18597;48.328;7.932;2024-03-23T09:05:26;10.03;;;5.53;;
32082;SDS011;18597;48.328;7.932;2024-03-23T09:07:53;5.90;;;4.30;;
32082;SDS011;18597;48.328;7.932;2024-03-23T09:10:19;6.83;;;3.37;;
32082;SDS011;18597;48.328;7.932;2024-03-23T09:12:45;8.40;;;4.13;;
32082;SDS011;18597;48.328;7.932;2024-03-23T09:15:11;15.63;;;3.50;;
32082;SDS011;18597;48.328;7.932;2024-03-23T09:17:36;13.43;;;4.13;;
32082;SDS011;18597;48.328;7.932;2024-03-23T09:20:02;7.10;;;3.00;;
32082;SDS011;18597;48.328;7.932;2024-03-23T09:22:29;6.27;;;3.57;;
32082;SDS011;18597;48.328;7.932;2024-03-23T09:24:55;8.40;;;3.83;;
32082;SDS011;18597;48.328;7.932;2024-03-23T09:27:21;9.47;;;4.07;;
32082;SDS011;18597;48.328;7.932;2024-03-23T09:29:46;6.90;;;3.17;;
32082;SDS011;18597;48.328;7.932;2024-03-23T09:32:12;12.33;;;3.80;;
32082;SDS011;18597;48.328;7.932;2024-03-23T09:34:38;10.60;;;4.43;;
32082;SDS011;18597;48.328;7.932;2024-03-23T09:37:04;7.53;;;4.20;;
32082;SDS011;18597;48.328;7.932;2024-03-23T09:39:29;16.70;;;4.10;;
32082;SDS011;18597;48.328;7.932;2024-03-23T09:41:57;10.50;;;5.27;;
32082;SDS011;18597;48.328;7.932;2024-03-23T09:44:23;13.03;;;4.27;;
32082;SDS011;18597;48.328;7.932;2024-03-23T09:46:51;9.17;;;3.70;;
32082;SDS011;18597;48.328;7.932;2024-03-23T09:49:17;9.23;;;3.30;;
32082;SDS011;18597;48.328;7.932;2024-03-23T09:51:43;5.57;;;2.50;;
32082;SDS011;18597;48.328;7.932;2024-03-23T09:54:08;3.70;;;2.97;;
32082;SDS011;18597;48.328;7.932;2024-03-23T09:56:34;10.83;;;3.67;;
32082;SDS011;18597;48.328;7.932;2024-03-23T09:59:01;10.57;;;4.03;;
32082;SDS011;18597;48.328;7.932;2024-03-23T10:01:29;4.73;;;2.80;;
32082;SDS011;18597;48.328;7.932;2024-03-23T10:03:55;10.20;;;3.57;;
32082;SDS011;18597;48.328;7.932;2024-03-23T10:06:22;13.10;;;3.50;;
32082;SDS011;18597;48.328;7.932;2024-03-23T10:08:51;6.47;;;3.17;;
32082;SDS011;18597;48.328;7.932;2024-03-23T10:11:20;3.40;;;2.37;;
32082;SDS011;18597;48.328;7.932;2024-03-23T10:13:46;6.40;;;2.77;;
32082;SDS011;18597;48.328;7.932;2024-03-23T10:16:20;3.50;;;2.37;;
32082;SDS011;18597;48.328;7.932;2024-03-23T10:18:48;3.30;;;2.73;;
32082;SDS011;18597;48.328;7.932;2024-03-23T10:21:15;5.50;;;2.77;;
32082;SDS011;18597;48.328;7.932;2024-03-23T10:23:42;7.07;;;3.13;;
32082;SDS011;18597;48.328;7.932;2024-03-23T10:26:16;6.03;;;1.83;;
32082;SDS011;18597;48.328;7.932;2024-03-23T10:28:50;5.60;;;1.87;;
32082;SDS011;18597;48.328;7.932;2024-03-23T10:31:26;2.80;;;1.50;;
32082;SDS011;18597;48.328;7.932;2024-03-23T10:33:54;5.13;;;2.00;;
32082;SDS011;18597;48.328;7.932;2024-03-23T10:36:21;4.93;;;1.83;;
32082;SDS011;18597;48.328;7.932;2024-03-23T10:38:50;2.30;;;1.27;;
32082;SDS011;18597;48.328;7.932;2024-03-23T10:41:17;1.63;;;1.50;;
32082;SDS011;18597;48.328;7.932;2024-03-23T10:43:45;3.60;;;1.83;;
32082;SDS011;18597;48.328;7.932;2024-03-23T10:46:13;3.30;;;2.00;;
32082;SDS011;18597;48.328;7.932;2024-03-23T10:48:39;2.53;;;2.33;;
32082;SDS011;18597;48.328;7.932;2024-03-23T10:51:06;5.03;;;2.20;;
32082;SDS011;18597;48.328;7.932;2024-03-23T10:53:34;3.23;;;2.30;;
32082;SDS011;18597;48.328;7.932;2024-03-23T10:56:01;2.30;;;2.10;;
32082;SDS011;18597;48.328;7.932;2024-03-23T10:58:31;1.97;;;1.80;;
32082;SDS011;18597;48.328;7.932;2024-03-23T11:01:11;3.47;;;2.10;;
32082;SDS011;18597;48.328;7.932;2024-03-23T11:03:39;6.83;;;2.60;;
32082;SDS011;18597;48.328;7.932;2024-03-23T11:06:44;5.83;;;1.70;;
32082;SDS011;18597;48.328;7.932;2024-03-23T11:09:02;3.80;;;1.87;;
32082;SDS011;18597;48.328;7.932;2024-03-23T11:11:28;2.80;;;1.43;;
32082;SDS011;18597;48.328;7.932;2024-03-23T11:13:57;4.47;;;1.73;;
32082;SDS011;18597;48.328;7.932;2024-03-23T11:16:24;2.10;;;1.77;;
32082;SDS011;18597;48.328;7.932;2024-03-23T11:22:02;4.80;;;2.47;;
32082;SDS011;18597;48.328;7.932;2024-03-23T11:24:30;4.20;;;2.00;;
32082;SDS011;18597;48.328;7.932;2024-03-23T11:26:57;8.83;;;2.50;;
32082;SDS011;18597;48.328;7.932;2024-03-23T11:29:28;2.67;;;1.93;;
32082;SDS011;18597;48.328;7.932;2024-03-23T11:31:55;5.90;;;2.10;;
32082;SDS011;18597;48.328;7.932;2024-03-23T11:34:21;3.50;;;1.97;;
32082;SDS011;18597;48.328;7.932;2024-03-23T11:36:47;9.77;;;3.20;;
32082;SDS011;18597;48.328;7.932;2024-03-23T11:39:16;8.57;;;1.70;;
32082;SDS011;18597;48.328;7.932;2024-03-23T11:41:52;2.73;;;1.33;;
32082;SDS011;18597;48.328;7.932;2024-03-23T11:44:22;4.43;;;2.13;;
32082;SDS011;18597;48.328;7.932;2024-03-23T11:46:50;5.40;;;2.23;;
32082;SDS011;18597;48.328;7.932;2024-03-23T11:49:28;6.80;;;3.33;;
32082;SDS011;18597;48.328;7.932;2024-03-23T11:51:55;6.93;;;2.23;;
32082;SDS011;18597;48.328;7.932;2024-03-23T11:54:23;8.30;;;2.20;;
32082;SDS011;18597;48.328;7.932;2024-03-23T11:56:54;7.70;;;1.80;;
32082;SDS011;18597;48.328;7.932;2024-03-23T11:59:40;3.50;;;2.27;;
32082;SDS011;18597;48.328;7.932;2024-03-23T12:02:08;2.97;;;1.50;;
32082;SDS011;18597;48.328;7.932;2024-03-23T12:04:37;3.00;;;2.80;;
32082;SDS011;18597;48.328;7.932;2024-03-23T12:07:20;10.30;;;3.20;;
32082;SDS011;18597;48.328;7.932;2024-03-23T12:09:47;4.03;;;2.03;;
32082;SDS011;18597;48.328;7.932;2024-03-23T12:12:30;5.67;;;2.20;;
32082;SDS011;18597;48.328;7.932;2024-03-23T12:15:11;5.90;;;2.57;;
32082;SDS011;18597;48.328;7.932;2024-03-23T12:17:38;2.03;;;1.83;;
32082;SDS011;18597;48.328;7.932;2024-03-23T12:20:04;3.03;;;2.73;;
32082;SDS011;18597;48.328;7.932;2024-03-23T12:22:30;9.20;;;3.40;;
32082;SDS011;18597;48.328;7.932;2024-03-23T12:24:56;2.13;;;1.97;;
32082;SDS011;18597;48.328;7.932;2024-03-23T12:27:22;5.80;;;1.90;;
32082;SDS011;18597;48.328;7.932;2024-03-23T12:29:48;4.03;;;2.03;;
32082;SDS011;18597;48.328;7.932;2024-03-23T12:32:14;7.10;;;2.13;;
32082;SDS011;18597;48.328;7.932;2024-03-23T12:34:41;3.77;;;2.50;;
32082;SDS011;18597;48.328;7.932;2024-03-23T12:37:07;5.60;;;2.50;;
32082;SDS011;18597;48.328;7.932;2024-03-23T12:39:34;4.83;;;2.53;;
32082;SDS011;18597;48.328;7.932;2024-03-23T12:42:00;5.70;;;1.87;;
32082;SDS011;18597;48.328;7.932;2024-03-23T12:44:28;7.03;;;1.70;;
32082;SDS011;18597;48.328;7.932;2024-03-23T12:46:54;2.30;;;1.27;;
32082;SDS011;18597;48.328;7.932;2024-03-23T12:49:20;1.57;;;1.50;;
32082;SDS011;18597;48.328;7.932;2024-03-23T12:51:52;2.07;;;1.10;;
32082;SDS011;18597;48.328;7.932;2024-03-23T12:54:21;3.13;;;1.00;;
32082;SDS011;18597;48.328;7.932;2024-03-23T12:56:47;1.03;;;0.93;;
32082;SDS011;18597;48.328;7.932;2024-03-23T12:59:13;2.97;;;1.30;;
32082;SDS011;18597;48.328;7.932;2024-03-23T13:01:40;3.80;;;1.60;;
32082;SDS011;18597;48.328;7.932;2024-03-23T13:04:05;3.00;;;1.13;;
32082;SDS011;18597;48.328;7.932;2024-03-23T13:06:31;4.40;;;1.30;;
32082;SDS011;18597;48.328;7.932;2024-03-23T13:08:59;3.97;;;1.40;;
32082;SDS011;18597;48.328;7.932;2024-03-23T13:11:26;5.60;;;1.30;;
32082;SDS011;18597;48.328;7.932;2024-03-23T13:13:53;1.00;;;1.00;;
32082;SDS011;18597;48.328;7.932;2024-03-23T13:16:19;0.90;;;0.90;;
32082;SDS011;18597;48.328;7.932;2024-03-23T13:18:45;4.07;;;1.47;;
32082;SDS011;18597;48.328;7.932;2024-03-23T13:21:11;1.57;;;0.90;;
32082;SDS011;18597;48.328;7.932;2024-03-23T13:23:37;7.57;;;1.87;;
32082;SDS011;18597;48.328;7.932;2024-03-23T13:26:07;8.17;;;1.40;;
32082;SDS011;18597;48.328;7.932;2024-03-23T13:28:33;2.67;;;1.20;;
32082;SDS011;18597;48.328;7.932;2024-03-23T13:31:00;1.13;;;1.00;;
32082;SDS011;18597;48.328;7.932;2024-03-23T13:33:29;3.03;;;1.07;;
32082;SDS011;18597;48.328;7.932;2024-03-23T13:35:57;3.27;;;1.50;;
32082;SDS011;18597;48.328;7.932;2024-03-23T13:38:23;7.07;;;1.57;;
32082;SDS011;18597;48.328;7.932;2024-03-23T13:40:50;2.83;;;1.70;;
32082;SDS011;18597;48.328;7.932;2024-03-23T13:43:19;3.23;;;1.60;;
32082;SDS011;18597;48.328;7.932;2024-03-23T13:45:47;6.37;;;1.43;;
32082;SDS011;18597;48.328;7.932;2024-03-23T13:48:13;2.57;;;1.33;;
32082;SDS011;18597;48.328;7.932;2024-03-23T13:50:40;3.27;;;1.30;;
32082;SDS011;18597;48.328;7.932;2024-03-23T13:53:06;8.70;;;2.10;;
32082;SDS011;18597;48.328;7.932;2024-03-23T13:55:33;3.07;;;1.13;;
32082;SDS011;18597;48.328;7.932;2024-03-23T13:57:59;5.10;;;1.40;;
32082;SDS011;18597;48.328;7.932;2024-03-23T14:00:25;1.17;;;1.10;;
32082;SDS011;18597;48.328;7.932;2024-03-23T14:02:51;4.20;;;1.60;;
32082;SDS011;18597;48.328;7.932;2024-03-23T14:05:16;3.33;;;1.33;;
32082;SDS011;18597;48.328;7.932;2024-03-23T14:07:42;1.40;;;1.30;;
32082;SDS011;18597;48.328;7.932;2024-03-23T14:10:08;1.43;;;1.03;;
32082;SDS011;18597;48.328;7.932;2024-03-23T14:12:36;5.13;;;1.13;;
32082;SDS011;18597;48.328;7.932;2024-03-23T14:15:05;8.00;;;2.27;;
32082;SDS011;18597;48.328;7.932;2024-03-23T14:17:31;2.93;;;1.13;;
32082;SDS011;18597;48.328;7.932;2024-03-23T14:19:58;5.47;;;1.47;;
32082;SDS011;18597;48.328;7.932;2024-03-23T14:22:26;4.23;;;0.80;;
32082;SDS011;18597;48.328;7.932;2024-03-23T14:24:53;3.03;;;0.70;;
32082;SDS011;18597;48.328;7.932;2024-03-23T14:27:19;2.10;;;0.73;;
32082;SDS011;18597;48.328;7.932;2024-03-23T14:29:46;1.30;;;0.70;;
32082;SDS011;18597;48.328;7.932;2024-03-23T14:32:12;2.37;;;0.50;;
32082;SDS011;18597;48.328;7.932;2024-03-23T14:34:38;1.70;;;0.80;;
32082;SDS011;18597;48.328;7.932;2024-03-23T14:37:04;0.60;;;0.60;;
32082;SDS011;18597;48.328;7.932;2024-03-23T14:39:31;0.57;;;0.57;;
32082;SDS011;18597;48.328;7.932;2024-03-23T14:41:59;1.30;;;0.57;;
32082;SDS011;18597;48.328;7.932;2024-03-23T14:44:26;0.70;;;0.70;;
32082;SDS011;18597;48.328;7.932;2024-03-23T14:46:53;5.70;;;1.27;;
32082;SDS011;18597;48.328;7.932;2024-03-23T14:49:20;2.00;;;0.70;;
32082;SDS011;18597;48.328;7.932;2024-03-23T14:51:46;2.93;;;1.47;;
32082;SDS011;18597;48.328;7.932;2024-03-23T14:54:12;5.47;;;1.20;;
32082;SDS011;18597;48.328;7.932;2024-03-23T14:56:38;2.63;;;1.80;;
32082;SDS011;18597;48.328;7.932;2024-03-23T14:59:04;2.10;;;1.00;;
32082;SDS011;18597;48.328;7.932;2024-03-23T15:01:31;2.30;;;0.93;;
32082;SDS011;18597;48.328;7.932;2024-03-23T15:03:57;2.90;;;0.93;;
32082;SDS011;18597;48.328;7.932;2024-03-23T15:06:23;1.73;;;1.17;;
32082;SDS011;18597;48.328;7.932;2024-03-23T15:08:48;3.30;;;0.60;;
32082;SDS011;18597;48.328;7.932;2024-03-23T15:11:14;4.13;;;0.80;;
32082;SDS011;18597;48.328;7.932;2024-03-23T15:13:43;1.97;;;1.77;;
32082;SDS011;18597;48.328;7.932;2024-03-23T15:16:09;1.17;;;0.90;;
32082;SDS011;18597;48.328;7.932;2024-03-23T15:18:35;2.50;;;1.03;;
32082;SDS011;18597;48.328;7.932;2024-03-23T15:21:02;4.83;;;1.47;;
32082;SDS011;18597;48.328;7.932;2024-03-23T15:23:32;2.53;;;1.43;;
32082;SDS011;18597;48.328;7.932;2024-03-23T15:25:58;3.73;;;3.30;;
32082;SDS011;18597;48.328;7.932;2024-03-23T15:28:26;4.70;;;0.90;;
32082;SDS011;18597;48.328;7.932;2024-03-23T15:31:03;1.40;;;1.30;;
32082;SDS011;18597;48.328;7.932;2024-03-23T15:33:29;0.50;;;0.30;;
32082;SDS011;18597;48.328;7.932;2024-03-23T15:36:02;0.77;;;0.40;;
32082;SDS011;18597;48.328;7.932;2024-03-23T15:38:30;0.20;;;0.20;;
32082;SDS011;18597;48.328;7.932;2024-03-23T15:40:57;0.80;;;0.50;;
32082;SDS011;18597;48.328;7.932;2024-03-23T15:43:24;0.40;;;0.30;;